createdAt,value
2022-12-23T00:02:22.502Z,42.43
2022-12-23T00:04:49.715Z,38.53
2022-12-23T00:07:16.896Z,40.60
2022-12-23T00:09:44.571Z,37.00
2022-12-23T00:12:30.361Z,47.97
2022-12-23T00:15:06.859Z,50.43
2022-12-23T00:17:34.580Z,35.83
2022-12-23T00:20:02.022Z,33.70
2022-12-23T00:22:47.283Z,40.30
2022-12-23T00:25:14.536Z,38.30
2022-12-23T00:27:41.912Z,41.23
2022-12-23T00:30:10.480Z,44.63
2022-12-23T00:32:37.696Z,39.30
2022-12-23T00:35:05.052Z,42.13
2022-12-23T00:37:32.312Z,39.22
2022-12-23T00:40:17.608Z,32.20
2022-12-23T00:42:53.420Z,46.65
2022-12-23T00:45:20.752Z,43.35
2022-12-23T00:48:06.716Z,41.28
2022-12-23T00:50:36.555Z,39.75
2022-12-23T00:53:04.052Z,44.10
2022-12-23T00:55:31.756Z,44.35
2022-12-23T00:57:59.038Z,38.85
2022-12-23T01:00:45.356Z,44.38
2022-12-23T01:03:32.407Z,40.78
2022-12-23T01:06:00.319Z,44.40
2022-12-23T01:08:27.932Z,37.72
2022-12-23T01:10:55.364Z,38.90
2022-12-23T01:13:22.897Z,41.78
2022-12-23T01:15:49.680Z,45.95
2022-12-23T01:18:17.028Z,41.13
2022-12-23T01:20:44.212Z,37.42
2022-12-23T01:23:11.034Z,37.33
2022-12-23T01:25:38.388Z,37.30
2022-12-23T01:28:05.222Z,54.17
2022-12-23T01:30:32.515Z,38.00
2022-12-23T01:32:59.765Z,43.55
2022-12-23T01:35:26.579Z,35.78
2022-12-23T01:37:53.371Z,43.75
2022-12-23T01:40:20.605Z,40.33
2022-12-23T01:42:47.823Z,38.57
2022-12-23T01:45:18.391Z,42.05
2022-12-23T01:48:02.146Z,31.92
2022-12-23T01:50:49.187Z,34.05
2022-12-23T01:53:24.097Z,38.63
2022-12-23T01:56:06.190Z,31.50
2022-12-23T01:59:02.248Z,37.13
2022-12-23T02:01:48.790Z,39.25
2022-12-23T02:04:21.869Z,34.25
2022-12-23T02:07:09.376Z,36.33
2022-12-23T02:09:38.639Z,36.67
2022-12-23T02:12:14.054Z,32.95
2022-12-23T02:15:14.803Z,33.78
2022-12-23T02:17:53.638Z,30.55
2022-12-23T02:20:37.182Z,32.17
2022-12-23T02:23:29.092Z,38.70
2022-12-23T02:26:21.974Z,31.23
2022-12-23T02:29:07.518Z,45.55
2022-12-23T02:31:34.852Z,34.90
2022-12-23T02:34:39.803Z,41.58
2022-12-23T02:37:24.853Z,36.70
2022-12-23T02:40:06.653Z,32.55
2022-12-23T02:42:44.577Z,32.75
2022-12-23T02:45:34.526Z,29.08
2022-12-23T02:48:08.220Z,23.60
2022-12-23T02:50:38.225Z,25.20
2022-12-23T02:53:11.724Z,21.88
2022-12-23T02:55:41.900Z,19.23
2022-12-23T02:58:12.954Z,17.65
2022-12-23T03:00:41.769Z,18.70
2022-12-23T03:03:09.160Z,21.37
2022-12-23T03:05:45.069Z,23.05
2022-12-23T03:08:16.892Z,23.25
2022-12-23T03:10:55.637Z,20.23
2022-12-23T03:13:56.471Z,22.15
2022-12-23T03:16:24.261Z,21.57
2022-12-23T03:19:10.050Z,20.08
2022-12-23T03:22:05.127Z,21.08
2022-12-23T03:24:48.230Z,20.05
2022-12-23T03:27:43.021Z,23.05
2022-12-23T03:30:10.502Z,27.67
2022-12-23T03:32:46.059Z,25.23
2022-12-23T03:35:17.782Z,22.83
2022-12-23T03:37:48.709Z,24.45
2022-12-23T03:40:20.649Z,25.75
2022-12-23T03:42:54.284Z,25.00
2022-12-23T03:45:45.002Z,24.55
2022-12-23T03:48:32.633Z,23.20
2022-12-23T03:51:05.645Z,24.27
2022-12-23T03:53:37.696Z,24.13
2022-12-23T03:56:10.489Z,25.90
2022-12-23T03:58:46.041Z,26.95
2022-12-23T04:01:26.004Z,21.90
2022-12-23T04:04:06.334Z,20.63
2022-12-23T04:06:49.218Z,25.70
2022-12-23T04:09:22.149Z,25.80
2022-12-23T04:11:50.352Z,27.13
2022-12-23T04:14:21.816Z,29.50
2022-12-23T04:16:53.283Z,21.35
2022-12-23T04:19:20.552Z,26.38
2022-12-23T04:21:47.782Z,23.43
2022-12-23T04:24:15.061Z,26.27
2022-12-23T04:26:42.086Z,23.60
2022-12-23T04:29:09.315Z,22.40
2022-12-23T04:31:36.531Z,23.17
2022-12-23T04:34:03.498Z,23.67
2022-12-23T04:36:30.728Z,20.38
2022-12-23T04:38:58.142Z,26.23
2022-12-23T04:41:24.942Z,20.92
2022-12-23T04:43:53.248Z,28.95
2022-12-23T04:46:20.944Z,30.90
2022-12-23T04:48:48.220Z,29.75
2022-12-23T04:51:15.568Z,28.50
2022-12-23T04:53:42.555Z,29.58
2022-12-23T04:56:09.857Z,29.30
2022-12-23T04:58:37.091Z,32.80
2022-12-23T05:01:04.418Z,31.27
2022-12-23T05:03:31.970Z,28.73
2022-12-23T05:05:59.432Z,32.47
2022-12-23T05:08:26.802Z,27.08
2022-12-23T05:10:54.039Z,30.47
2022-12-23T05:13:21.281Z,32.08
2022-12-23T05:15:53.528Z,31.05
2022-12-23T05:18:21.713Z,31.63
2022-12-23T05:20:49.587Z,37.75
2022-12-23T05:23:16.868Z,33.57
2022-12-23T05:25:44.062Z,32.90
2022-12-23T05:28:12.049Z,33.05
2022-12-23T05:30:39.248Z,36.08
2022-12-23T05:33:06.463Z,34.28
2022-12-23T05:35:33.677Z,31.50
2022-12-23T05:38:03.172Z,29.95
2022-12-23T05:40:31.653Z,37.67
2022-12-23T05:42:59.987Z,31.10
2022-12-23T05:45:27.294Z,31.85
2022-12-23T05:47:54.544Z,33.97
2022-12-23T05:50:21.473Z,40.22
2022-12-23T05:52:49.508Z,29.52
2022-12-23T05:55:16.423Z,35.63
2022-12-23T05:57:43.407Z,27.83
2022-12-23T06:00:10.707Z,32.50
2022-12-23T06:02:40.918Z,31.90
2022-12-23T06:05:08.719Z,28.23
2022-12-23T06:07:36.065Z,37.13
2022-12-23T06:10:03.398Z,36.05
2022-12-23T06:12:30.635Z,33.40
2022-12-23T06:14:57.899Z,33.80
2022-12-23T06:17:25.232Z,37.03
2022-12-23T06:19:52.412Z,41.47
2022-12-23T06:22:21.720Z,35.42
2022-12-23T06:24:49.022Z,36.77
2022-12-23T06:27:16.593Z,37.92
2022-12-23T06:29:43.561Z,32.50
2022-12-23T06:32:10.838Z,38.65
2022-12-23T06:34:37.772Z,37.55
2022-12-23T06:37:05.155Z,34.37
2022-12-23T06:39:32.438Z,35.80
2022-12-23T06:41:59.331Z,32.60
2022-12-23T06:44:26.560Z,35.25
2022-12-23T06:46:53.786Z,32.17
2022-12-23T06:49:21.156Z,34.63
2022-12-23T06:51:47.916Z,38.28
2022-12-23T06:54:15.258Z,34.88
2022-12-23T06:56:42.055Z,32.70
2022-12-23T06:59:09.333Z,34.92
2022-12-23T07:01:36.854Z,42.00
2022-12-23T07:04:03.872Z,43.70
2022-12-23T07:06:31.191Z,42.35
2022-12-23T07:08:58.420Z,40.15
2022-12-23T07:11:25.636Z,34.10
2022-12-23T07:13:52.987Z,41.97
2022-12-23T07:16:20.319Z,35.70
2022-12-23T07:18:47.577Z,39.22
2022-12-23T07:21:22.912Z,37.00
2022-12-23T07:23:53.843Z,40.28
2022-12-23T07:26:21.458Z,41.83
2022-12-23T07:28:49.019Z,81.93
2022-12-23T07:31:16.447Z,44.85
2022-12-23T07:33:43.894Z,41.45
2022-12-23T07:36:11.129Z,44.72
2022-12-23T07:38:38.552Z,38.50
2022-12-23T07:41:05.858Z,38.67
2022-12-23T07:43:33.119Z,43.42
2022-12-23T07:46:01.266Z,40.83
2022-12-23T07:48:28.557Z,44.17
2022-12-23T07:51:02.110Z,40.87
2022-12-23T07:53:29.690Z,43.50
2022-12-23T07:55:57.191Z,42.75
2022-12-23T07:58:24.876Z,77.53
2022-12-23T08:00:58.574Z,54.80
2022-12-23T08:03:26.106Z,45.10
2022-12-23T08:06:04.448Z,77.28
2022-12-23T08:08:32.504Z,42.63
2022-12-23T08:11:01.392Z,38.40
2022-12-23T08:13:28.607Z,45.58
2022-12-23T08:16:00.779Z,36.97
2022-12-23T08:18:31.281Z,39.88
2022-12-23T08:21:00.540Z,41.38
2022-12-23T08:23:28.793Z,45.50
2022-12-23T08:26:03.842Z,36.85
2022-12-23T08:28:31.523Z,39.33
2022-12-23T08:31:31.944Z,43.88
2022-12-23T08:34:00.557Z,41.63
2022-12-23T08:36:35.399Z,45.30
2022-12-23T08:39:05.948Z,38.25
2022-12-23T08:41:36.653Z,45.37
2022-12-23T08:44:04.563Z,37.95
2022-12-23T08:46:31.894Z,41.47
2022-12-23T08:48:59.254Z,37.22
2022-12-23T08:51:27.748Z,38.33
2022-12-23T08:54:00.509Z,38.07
2022-12-23T08:56:31.257Z,32.72
2022-12-23T08:58:58.648Z,42.95
2022-12-23T09:01:28.887Z,49.13
2022-12-23T09:03:56.244Z,39.90
2022-12-23T09:06:29.534Z,42.80
2022-12-23T09:08:58.016Z,60.42
2022-12-23T09:11:27.974Z,62.88
2022-12-23T09:13:55.361Z,65.05
2022-12-23T09:16:23.236Z,66.45
2022-12-23T09:18:50.568Z,71.10
2022-12-23T09:21:22.880Z,87.53
2022-12-23T09:23:50.412Z,65.80
2022-12-23T09:26:20.321Z,67.22
2022-12-23T09:28:47.557Z,52.58
2022-12-23T09:31:15.278Z,62.40
2022-12-23T09:33:42.740Z,74.80
2022-12-23T09:36:10.105Z,58.15
2022-12-23T09:38:38.351Z,41.72
2022-12-23T09:41:50.053Z,60.17
2022-12-23T09:44:35.572Z,49.77
2022-12-23T09:47:10.334Z,50.85
2022-12-23T09:49:44.658Z,48.55
2022-12-23T09:52:16.282Z,101.68
2022-12-23T09:54:48.388Z,63.05
2022-12-23T09:57:36.466Z,56.57
2022-12-23T10:00:18.747Z,57.03
2022-12-23T10:03:04.421Z,64.90
2022-12-23T10:05:57.109Z,53.25
2022-12-23T10:08:45.024Z,38.15
2022-12-23T10:11:31.258Z,44.23
2022-12-23T10:14:14.332Z,46.63
2022-12-23T10:16:58.113Z,44.08
2022-12-23T10:19:46.786Z,33.50
2022-12-23T10:22:35.760Z,35.75
2022-12-23T10:25:05.575Z,41.33
2022-12-23T10:27:38.860Z,39.80
2022-12-23T10:30:42.476Z,52.92
2022-12-23T10:33:23.758Z,35.90
2022-12-23T10:36:01.132Z,57.45
2022-12-23T10:38:28.475Z,44.70
2022-12-23T10:41:10.525Z,43.45
2022-12-23T10:43:52.399Z,53.45
2022-12-23T10:46:55.078Z,81.18
2022-12-23T10:49:22.314Z,50.70
2022-12-23T10:51:49.666Z,44.00
2022-12-23T10:54:26.613Z,46.05
2022-12-23T10:56:54.281Z,48.63
2022-12-23T10:59:27.190Z,50.75
2022-12-23T11:02:12.476Z,41.92
2022-12-23T11:04:40.961Z,47.80
2022-12-23T11:07:42.878Z,42.88
2022-12-23T11:10:13.365Z,41.70
2022-12-23T11:12:43.857Z,57.90
2022-12-23T11:15:28.436Z,62.05
2022-12-23T11:18:12.277Z,63.13
2022-12-23T11:20:41.400Z,50.13
2022-12-23T11:23:28.647Z,52.50
2022-12-23T11:26:18.697Z,60.50
2022-12-23T11:28:52.160Z,55.60
2022-12-23T11:31:35.277Z,43.33
2022-12-23T11:34:33.110Z,54.55
2022-12-23T11:37:05.444Z,61.22
2022-12-23T11:39:36.795Z,59.67
2022-12-23T11:42:24.577Z,61.08
2022-12-23T11:44:54.698Z,64.07
2022-12-23T11:47:38.936Z,66.80
2022-12-23T11:50:26.443Z,63.05
2022-12-23T11:52:56.847Z,57.35
2022-12-23T11:55:26.034Z,60.08
2022-12-23T11:57:53.599Z,64.47
2022-12-23T12:00:21.135Z,59.38
2022-12-23T12:02:54.725Z,50.22
2022-12-23T12:05:49.626Z,71.03
2022-12-23T12:08:21.428Z,63.80
2022-12-23T12:10:52.596Z,62.03
2022-12-23T12:13:28.483Z,61.97
2022-12-23T12:16:22.618Z,52.38
2022-12-23T12:18:55.437Z,50.05
2022-12-23T12:21:30.741Z,59.38
2022-12-23T12:24:20.046Z,60.23
2022-12-23T12:26:51.442Z,61.03
2022-12-23T12:29:40.313Z,63.75
2022-12-23T12:32:19.680Z,57.45
2022-12-23T12:35:03.830Z,58.60
2022-12-23T12:37:59.448Z,64.67
2022-12-23T12:40:47.345Z,51.55
2022-12-23T12:43:31.637Z,68.47
2022-12-23T12:45:58.967Z,46.22
2022-12-23T12:48:53.355Z,46.80
2022-12-23T12:51:40.773Z,46.43
2022-12-23T12:54:37.628Z,42.00
2022-12-23T12:57:05.011Z,46.78
2022-12-23T12:59:35.425Z,39.75
2022-12-23T13:02:30.555Z,51.58
2022-12-23T13:05:31.048Z,39.73
2022-12-23T13:08:07.501Z,40.45
2022-12-23T13:10:49.732Z,78.35
2022-12-23T13:13:26.300Z,67.65
2022-12-23T13:16:02.734Z,63.17
2022-12-23T13:18:36.106Z,47.93
2022-12-23T13:21:03.319Z,39.88
2022-12-23T13:23:48.157Z,59.67
2022-12-23T13:27:04.767Z,32.72
2022-12-23T13:29:58.238Z,43.95
2022-12-23T13:32:49.784Z,34.27
2022-12-23T13:35:42.768Z,35.70
2022-12-23T13:38:25.127Z,41.25
2022-12-23T13:41:11.251Z,39.00
2022-12-23T13:43:47.479Z,41.63
2022-12-23T13:46:24.106Z,35.93
2022-12-23T13:49:03.315Z,49.30
2022-12-23T13:51:37.192Z,42.30
2022-12-23T13:54:22.966Z,32.25
2022-12-23T13:57:08.459Z,32.28
2022-12-23T13:59:40.537Z,38.43
2022-12-23T14:02:36.406Z,32.25
2022-12-23T14:05:26.849Z,31.00
2022-12-23T14:07:54.698Z,27.65
2022-12-23T14:10:24.212Z,28.10
2022-12-23T14:12:53.145Z,27.77
2022-12-23T14:15:20.468Z,31.45
2022-12-23T14:18:00.931Z,37.55
2022-12-23T14:20:52.343Z,26.73
2022-12-23T14:23:52.200Z,29.10
2022-12-23T14:26:47.705Z,32.13
2022-12-23T14:29:41.283Z,34.10
2022-12-23T14:32:27.390Z,37.72
2022-12-23T14:35:19.064Z,27.08
2022-12-23T14:38:10.691Z,27.77
2022-12-23T14:40:37.897Z,37.50
2022-12-23T14:43:25.234Z,22.55
2022-12-23T14:45:52.467Z,45.13
2022-12-23T14:48:34.466Z,26.80
2022-12-23T14:51:03.965Z,31.63
2022-12-23T14:53:33.342Z,28.10
2022-12-23T14:56:18.189Z,30.52
2022-12-23T14:59:10.671Z,30.38
2022-12-23T15:01:58.775Z,31.40
2022-12-23T15:04:54.650Z,24.70
2022-12-23T15:07:40.815Z,31.70
2022-12-23T15:10:17.458Z,34.25
2022-12-23T15:12:49.491Z,22.40
2022-12-23T15:15:19.715Z,27.77
2022-12-23T15:17:47.258Z,25.40
2022-12-23T15:20:23.106Z,33.27
2022-12-23T15:22:50.909Z,24.38
2022-12-23T15:25:24.333Z,26.17
2022-12-23T15:28:00.865Z,23.55
2022-12-23T15:30:47.259Z,33.13
2022-12-23T15:36:32.297Z,31.77
2022-12-23T15:39:01.560Z,28.70
2022-12-23T15:41:29.218Z,47.58
2022-12-23T15:43:58.107Z,42.85
2022-12-23T15:46:30.072Z,30.00
2022-12-23T15:48:57.909Z,27.42
2022-12-23T15:52:07.078Z,29.10
2022-12-23T15:54:40.005Z,33.42
2022-12-23T15:57:07.334Z,27.20
2022-12-23T15:59:38.261Z,33.77
2022-12-23T16:05:34.254Z,31.08
2022-12-23T16:08:28.669Z,39.05
2022-12-23T16:10:57.319Z,26.65
2022-12-23T16:13:24.896Z,27.07
2022-12-23T16:15:52.265Z,19.83
2022-12-23T16:18:31.719Z,21.25
2022-12-23T16:20:59.105Z,23.58
2022-12-23T16:23:30.629Z,22.58
2022-12-23T16:26:00.384Z,25.93
2022-12-23T16:28:45.837Z,23.90
2022-12-23T16:31:16.708Z,24.75
2022-12-23T16:33:58.234Z,26.13
2022-12-23T16:36:28.027Z,27.73
2022-12-23T16:39:07.036Z,28.97
2022-12-23T16:41:35.102Z,26.88
2022-12-23T16:44:02.871Z,32.35
2022-12-23T16:46:36.580Z,27.52
2022-12-23T16:49:06.690Z,25.65
2022-12-23T16:51:34.422Z,30.17
2022-12-23T16:54:02.121Z,24.35
2022-12-23T16:56:35.999Z,25.95
2022-12-23T16:59:03.688Z,34.85
2022-12-23T17:01:33.886Z,30.92
2022-12-23T17:04:01.380Z,29.90
2022-12-23T17:06:28.659Z,42.70
2022-12-23T17:08:57.012Z,30.10
2022-12-23T17:11:29.902Z,31.05
2022-12-23T17:14:03.923Z,25.27
2022-12-23T17:16:33.747Z,26.53
2022-12-23T17:19:01.172Z,32.50
2022-12-23T17:21:34.988Z,29.25
2022-12-23T17:24:24.481Z,25.45
2022-12-23T17:26:52.649Z,29.80
2022-12-23T17:29:20.348Z,28.00
2022-12-23T17:31:49.537Z,33.08
2022-12-23T17:34:22.172Z,30.50
2022-12-23T17:36:50.988Z,24.58
2022-12-23T17:39:21.082Z,35.35
2022-12-23T17:41:48.746Z,35.70
2022-12-23T17:44:16.911Z,30.27
2022-12-23T17:46:45.385Z,39.80
2022-12-23T17:49:12.964Z,35.00
2022-12-23T17:51:42.562Z,29.30
2022-12-23T17:54:22.918Z,26.03
2022-12-23T17:56:51.039Z,23.88
2022-12-23T17:59:17.959Z,35.53
2022-12-23T18:01:45.440Z,44.28
2022-12-23T18:04:12.730Z,31.17
2022-12-23T18:06:40.160Z,40.50
2022-12-23T18:09:07.686Z,35.13
2022-12-23T18:11:41.849Z,40.10
2022-12-23T18:14:17.492Z,40.97
2022-12-23T18:16:45.148Z,51.92
2022-12-23T18:19:18.124Z,38.73
2022-12-23T18:21:46.116Z,35.38
2022-12-23T18:24:13.373Z,44.75
2022-12-23T18:26:41.208Z,31.30
2022-12-23T18:29:08.663Z,49.10
2022-12-23T18:31:37.601Z,48.10
2022-12-23T18:34:04.915Z,38.47
2022-12-23T18:36:33.915Z,52.00
2022-12-23T18:39:00.963Z,39.53
2022-12-23T18:41:28.356Z,42.55
2022-12-23T18:43:55.677Z,33.00
2022-12-23T18:46:23.026Z,37.22
2022-12-23T18:48:51.880Z,35.90
2022-12-23T18:51:21.168Z,40.17
2022-12-23T18:53:48.670Z,42.97
2022-12-23T18:56:19.185Z,29.27
2022-12-23T18:58:46.570Z,42.38
2022-12-23T19:01:15.010Z,41.08
2022-12-23T19:03:42.825Z,43.15
2022-12-23T19:06:13.299Z,47.15
2022-12-23T19:08:41.320Z,41.27
2022-12-23T19:11:20.250Z,47.38
2022-12-23T19:13:47.740Z,39.38
2022-12-23T19:16:21.096Z,39.03
2022-12-23T19:18:49.324Z,40.78
2022-12-23T19:21:17.832Z,49.20
2022-12-23T19:23:45.282Z,36.55
2022-12-23T19:26:14.854Z,25.02
2022-12-23T19:28:42.501Z,42.55
2022-12-23T19:31:15.017Z,47.10
2022-12-23T19:33:43.682Z,26.33
2022-12-23T19:36:15.855Z,30.33
2022-12-23T19:38:43.116Z,32.55
2022-12-23T19:41:10.390Z,41.80
2022-12-23T19:43:38.532Z,41.83
2022-12-23T19:46:09.809Z,46.27
2022-12-23T19:48:37.475Z,37.42
2022-12-23T19:51:13.339Z,36.10
2022-12-23T19:53:41.965Z,43.15
2022-12-23T19:56:12.623Z,41.55
2022-12-23T19:58:41.505Z,34.67
2022-12-23T20:01:23.998Z,41.40
2022-12-23T20:03:52.569Z,40.80
2022-12-23T20:06:35.096Z,39.97
2022-12-23T20:09:06.558Z,19.15
2022-12-23T20:11:39.444Z,43.33
2022-12-23T20:14:07.007Z,29.15
2022-12-23T20:16:34.637Z,36.53
2022-12-23T20:19:02.333Z,33.67
2022-12-23T20:21:29.696Z,33.90
2022-12-23T20:23:57.102Z,29.50
2022-12-23T20:26:24.377Z,37.22
2022-12-23T20:28:51.935Z,28.70
2022-12-23T20:31:28.027Z,23.55
2022-12-23T20:33:57.282Z,18.42
2022-12-23T20:36:35.193Z,18.87
2022-12-23T20:39:04.181Z,30.58
2022-12-23T20:41:32.651Z,20.77
2022-12-23T20:44:33.418Z,21.27
2022-12-23T20:46:48.096Z,13.50
2022-12-23T20:49:15.406Z,20.97
2022-12-23T20:51:42.887Z,29.05
2022-12-23T20:54:10.245Z,41.30
2022-12-23T20:56:37.628Z,17.88
2022-12-23T20:59:05.015Z,27.02
2022-12-23T21:01:38.190Z,35.40
2022-12-23T21:04:16.046Z,28.95
2022-12-23T21:06:43.689Z,31.00
2022-12-23T21:09:13.218Z,24.95
2022-12-23T21:11:43.346Z,28.15
2022-12-23T21:14:11.941Z,29.33
2022-12-23T21:16:39.478Z,30.52
2022-12-23T21:19:08.568Z,18.08
2022-12-23T21:21:35.917Z,33.55
2022-12-23T21:24:04.731Z,27.42
2022-12-23T21:26:33.589Z,16.80
2022-12-23T21:29:02.236Z,28.23
2022-12-23T21:31:30.936Z,27.48
2022-12-23T21:33:58.536Z,24.83
2022-12-23T21:36:28.103Z,15.20
2022-12-23T21:38:55.529Z,23.60
2022-12-23T21:41:25.595Z,21.20
2022-12-23T21:43:52.993Z,26.75
2022-12-23T21:46:22.460Z,20.08
2022-12-23T21:48:52.747Z,13.55
2022-12-23T21:51:25.572Z,37.83
2022-12-23T21:53:54.214Z,34.47
2022-12-23T21:56:25.061Z,22.90
2022-12-23T21:59:00.298Z,19.35
2022-12-23T22:01:27.780Z,22.60
2022-12-23T22:03:55.545Z,29.30
2022-12-23T22:06:24.585Z,18.05
2022-12-23T22:08:53.156Z,24.63
2022-12-23T22:11:25.806Z,25.05
2022-12-23T22:13:53.383Z,31.17
2022-12-23T22:16:22.554Z,11.70
2022-12-23T22:18:50.633Z,23.27
2022-12-23T22:21:23.017Z,20.27
2022-12-23T22:23:50.913Z,28.48
2022-12-23T22:26:25.820Z,22.65
2022-12-23T22:28:55.640Z,21.10
2022-12-23T22:31:50.201Z,16.20
2022-12-23T22:34:20.547Z,21.38
2022-12-23T22:36:48.154Z,21.13
2022-12-23T22:39:21.119Z,21.67
2022-12-23T22:41:50.545Z,22.53
2022-12-23T22:44:18.090Z,25.27
2022-12-23T22:46:45.629Z,31.85
2022-12-23T22:49:13.296Z,28.13
2022-12-23T22:51:41.360Z,26.58
2022-12-23T22:54:09.178Z,23.53
2022-12-23T22:56:36.611Z,24.63
2022-12-23T22:59:04.747Z,24.70
2022-12-23T23:01:34.525Z,17.45
2022-12-23T23:04:03.459Z,31.73
2022-12-23T23:06:33.968Z,21.07
2022-12-23T23:09:01.376Z,29.60
2022-12-23T23:11:29.136Z,29.70
2022-12-23T23:13:56.925Z,20.67
2022-12-23T23:16:24.738Z,18.92
2022-12-23T23:18:53.049Z,23.70
2022-12-23T23:21:20.856Z,28.45
2022-12-23T23:23:48.453Z,34.60
2022-12-23T23:26:15.706Z,20.17
2022-12-23T23:28:43.555Z,20.50
2022-12-23T23:33:58.502Z,24.95
2022-12-23T23:36:25.829Z,28.77
2022-12-23T23:38:53.175Z,22.27
2022-12-23T23:41:23.278Z,29.55
2022-12-23T23:43:51.526Z,27.90
2022-12-23T23:46:19.328Z,24.38
2022-12-23T23:48:46.737Z,33.05
2022-12-23T23:51:14.227Z,30.63
2022-12-23T23:53:41.489Z,17.65
2022-12-23T23:56:08.992Z,43.90
2022-12-23T23:58:37.438Z,39.85
